Time;durP1;ratioP1;P1;durP2;ratioP2;P2;SDS_P1;SDS_P2;PMS_P1;PMS_P2;Temp;Humidity;BMP_temperature;BMP_pressure;BME280_temperature;BME280_humidity;BME280_pressure;Samples;Min_cycle;Max_cycle;Signal;HPM_P1;HPM_P2
2021/12/17 00:07:24;;;;;;;6.97;2.40;;;;;;;6.58;100.00;103360.88;6306847;22;20023;-91
2021/12/17 00:09:52;;;;;;;7.30;2.42;;;;;;;6.55;100.00;103359.13;6307998;22;20351;-90
2021/12/17 00:12:21;;;;;;;6.20;2.30;;;;;;;6.30;100.00;103330.78;6308044;22;20025;-89
2021/12/17 00:14:50;;;;;;;4.53;1.80;;;;;;;6.61;100.00;103373.97;6307295;22;20078;-91
2021/12/17 00:17:24;;;;;;;8.10;2.20;;;;;;;6.59;100.00;103358.31;6305379;22;20015;-89
2021/12/17 00:49:59;;;;;;;10.57;3.78;;;;;;;6.36;100.00;103375.19;6307413;22;20097;-92
2021/12/17 00:52:29;;;;;;;9.10;3.38;;;;;;;6.22;100.00;103365.31;6307341;22;20441;-90
2021/12/17 00:54:56;;;;;;;11.57;3.90;;;;;;;6.10;100.00;103367.66;6307015;22;20021;-91
2021/12/17 00:57:29;;;;;;;9.52;3.30;;;;;;;6.17;100.00;103368.66;6304004;22;20021;-91
2021/12/17 00:59:56;;;;;;;8.15;2.75;;;;;;;6.22;100.00;103378.34;6303648;22;20030;-90
2021/12/17 01:02:30;;;;;;;8.02;3.20;;;;;;;6.09;100.00;103371.06;6305303;22;20026;-91
2021/12/17 01:05:06;;;;;;;6.80;2.45;;;;;;;6.10;100.00;103375.44;6305588;22;20042;-91
2021/12/17 01:07:37;;;;;;;10.25;2.92;;;;;;;6.18;100.00;103388.63;6305544;22;20015;-90
2021/12/17 01:10:07;;;;;;;6.60;2.30;;;;;;;6.10;100.00;103366.78;6305519;22;20061;-91
2021/12/17 01:12:34;;;;;;;7.30;2.65;;;;;;;6.16;100.00;103374.69;6305661;22;20341;-91
2021/12/17 01:15:03;;;;;;;6.80;2.53;;;;;;;6.17;100.00;103390.34;6304749;22;20023;-91
2021/12/17 01:17:32;;;;;;;8.05;2.95;;;;;;;6.07;100.00;103377.97;6306133;22;20020;-91
2021/12/17 01:36:28;;;;;;;6.47;2.05;;;;;;;6.17;100.00;103389.47;6306477;22;20019;-90
2021/12/17 01:44:06;;;;;;;6.18;2.10;;;;;;;6.08;100.00;103400.53;6306569;22;20023;-90
2021/12/17 01:46:35;;;;;;;6.30;1.80;;;;;;;6.14;100.00;103408.47;6304419;22;20089;-90
2021/12/17 01:59:55;;;;;;;3.75;1.60;;;;;;;6.07;100.00;103415.28;6305212;22;20094;-90
2021/12/17 02:02:22;;;;;;;3.13;1.60;;;;;;;5.95;100.00;103406.25;6304640;22;20467;-89
2021/12/17 02:04:49;;;;;;;4.00;1.70;;;;;;;5.85;100.00;103407.75;6305984;22;20384;-90
2021/12/17 02:07:16;;;;;;;4.03;1.70;;;;;;;5.92;100.00;103393.19;6303913;22;20453;-90
2021/12/17 02:33:50;;;;;;;7.53;1.67;;;;;;;5.83;100.00;103412.91;6306212;22;20073;-90
2021/12/17 02:36:21;;;;;;;3.78;1.52;;;;;;;5.64;100.00;103424.56;6305487;22;20445;-90
2021/12/17 02:38:48;;;;;;;6.15;1.58;;;;;;;5.53;100.00;103432.94;6303386;22;20026;-90
2021/12/17 02:46:47;;;;;;;2.60;1.40;;;;;;;5.39;100.00;103432.56;6304447;22;20098;-89
2021/12/17 02:49:14;;;;;;;4.32;1.70;;;;;;;5.44;100.00;103441.38;6303805;22;20030;-89
2021/12/17 02:51:43;;;;;;;6.07;2.17;;;;;;;5.44;100.00;103434.44;6304842;22;20318;-89
2021/12/17 02:54:11;;;;;;;5.32;1.80;;;;;;;5.43;100.00;103443.06;6304985;22;20460;-89
2021/12/17 02:56:39;;;;;;;5.05;1.77;;;;;;;5.32;100.00;103447.09;6303679;22;20019;-88
2021/12/17 02:59:10;;;;;;;3.70;1.60;;;;;;;5.29;100.00;103447.91;6303342;22;20045;-89
2021/12/17 03:01:37;;;;;;;4.13;1.52;;;;;;;5.38;100.00;103442.06;6303871;22;20025;-89
2021/12/17 03:04:04;;;;;;;4.95;1.77;;;;;;;5.44;100.00;103446.56;6304550;22;20024;-89
2021/12/17 03:06:31;;;;;;;4.55;1.83;;;;;;;5.17;100.00;103442.38;6306291;22;20023;-90
2021/12/17 03:08:58;;;;;;;3.70;1.50;;;;;;;5.12;100.00;103465.59;6305568;22;20019;-89
2021/12/17 03:11:25;;;;;;;4.22;1.63;;;;;;;5.26;100.00;103444.34;6305070;22;20459;-89
2021/12/17 03:13:52;;;;;;;5.35;1.80;;;;;;;5.37;100.00;103462.81;6304636;22;20340;-91
2021/12/17 03:16:29;;;;;;;4.35;1.70;;;;;;;5.13;100.00;103450.88;6305850;22;20612;-91
2021/12/17 03:19:26;;;;;;;5.45;1.90;;;;;;;5.13;100.00;103449.19;6306055;22;20026;-91
2021/12/17 03:24:38;;;;;;;6.20;1.70;;;;;;;5.19;100.00;103464.06;6308390;22;20330;-91
2021/12/17 03:27:04;;;;;;;6.65;3.00;;;;;;;5.13;100.00;103449.19;6306040;22;20460;-91
2021/12/17 03:29:35;;;;;;;3.72;1.50;;;;;;;5.22;100.00;103453.72;6306668;22;20019;-91
2021/12/17 03:32:03;;;;;;;4.47;1.67;;;;;;;5.06;100.00;103487.91;6306564;22;20019;-91
2021/12/17 03:34:30;;;;;;;5.88;1.77;;;;;;;4.82;100.00;103465.56;6306459;22;20023;-91
2021/12/17 03:36:57;;;;;;;6.68;1.70;;;;;;;4.58;100.00;103450.13;6305249;22;20019;-90
2021/12/17 03:39:26;;;;;;;4.95;1.83;;;;;;;4.78;100.00;103462.84;6307395;22;20030;-91
2021/12/17 03:41:53;;;;;;;4.47;1.50;;;;;;;4.94;100.00;103460.75;6306332;22;20389;-91
2021/12/17 03:44:21;;;;;;;6.07;2.13;;;;;;;4.94;100.00;103460.75;6305979;22;20019;-91
2021/12/17 03:46:50;;;;;;;6.10;2.22;;;;;;;4.84;100.00;103483.81;6306728;22;20030;-90
2021/12/17 03:49:18;;;;;;;4.43;1.70;;;;;;;4.85;100.00;103480.34;6306519;22;20022;-91
2021/12/17 03:52:03;;;;;;;4.88;1.80;;;;;;;4.97;100.00;103475.53;6305543;22;20023;-91
2021/12/17 03:54:35;;;;;;;3.85;1.92;;;;;;;4.77;100.00;103469.75;6305943;22;20019;-91
2021/12/17 03:57:05;;;;;;;5.88;1.75;;;;;;;4.85;100.00;103493.34;6305188;22;20023;-90
2021/12/17 03:59:33;;;;;;;4.15;1.77;;;;;;;4.72;100.00;103467.00;6306117;22;20033;-91
2021/12/17 04:02:00;;;;;;;3.28;1.67;;;;;;;4.77;100.00;103474.06;6305260;22;20025;-91
2021/12/17 04:04:27;;;;;;;4.03;1.70;;;;;;;4.87;100.00;103481.28;6306522;22;20019;-91
2021/12/17 04:06:54;;;;;;;5.75;2.10;;;;;;;4.70;100.00;103468.66;6306990;22;20338;-90
2021/12/17 04:09:22;;;;;;;4.53;1.80;;;;;;;4.83;100.00;103489.81;6305626;22;20020;-89
2021/12/17 04:11:49;;;;;;;5.47;1.88;;;;;;;4.76;100.00;103470.56;6306120;22;20030;-89
2021/12/17 04:14:19;;;;;;;5.68;1.75;;;;;;;4.65;100.00;103469.38;6305939;22;20102;-90
2021/12/17 04:16:46;;;;;;;5.25;1.90;;;;;;;4.67;100.00;103468.56;6306628;22;20345;-89
2021/12/17 04:19:13;;;;;;;3.42;1.60;;;;;;;4.81;100.00;103478.50;6306930;22;20025;-89
2021/12/17 04:21:44;;;;;;;3.63;1.40;;;;;;;4.86;100.00;103485.59;6308041;22;20073;-89
2021/12/17 04:24:10;;;;;;;5.57;1.60;;;;;;;4.75;100.00;103467.09;6305740;22;20020;-90
2021/12/17 04:26:37;;;;;;;3.50;1.63;;;;;;;4.78;100.00;103473.22;6305507;22;20019;-89
2021/12/17 04:29:06;;;;;;;5.28;2.22;;;;;;;4.81;100.00;103481.97;6304850;22;20011;-90
2021/12/17 04:31:32;;;;;;;5.40;1.73;;;;;;;4.80;100.00;103472.44;6306040;22;20029;-90
2021/12/17 04:33:59;;;;;;;3.67;1.70;;;;;;;4.96;100.00;103491.97;6304745;22;20023;-90
2021/12/17 04:36:30;;;;;;;5.28;2.30;;;;;;;4.71;100.00;103469.53;6305640;22;20025;-90
2021/12/17 04:38:58;;;;;;;7.95;2.15;;;;;;;4.46;100.00;103445.47;6304904;22;20050;-90
2021/12/17 04:41:54;;;;;;;5.10;1.60;;;;;;;5.05;100.00;103512.13;6305373;22;20056;-89
2021/12/17 04:46:53;;;;;;;9.70;2.47;;;;;;;4.63;100.00;103464.13;6306309;22;20444;-90
2021/12/17 04:57:38;;;;;;;3.53;1.50;;;;;;;4.97;100.00;103517.06;6305821;22;20027;-90
2021/12/17 05:00:11;;;;;;;3.80;1.77;;;;;;;4.88;100.00;103509.88;6304853;22;20628;-89
2021/12/17 05:02:43;;;;;;;;;;;;;;;5.01;100.00;103531.94;6304685;22;20026;-90
2021/12/17 05:05:12;;;;;;;5.97;2.22;;;;;;;4.89;100.00;103523.78;6307032;22;20005;-89
2021/12/17 05:07:44;;;;;;;5.25;1.98;;;;;;;4.84;100.00;103546.97;6304308;22;20019;-89
2021/12/17 05:10:29;;;;;;;8.30;2.28;;;;;;;4.80;100.00;103529.56;6305230;22;20023;-90
2021/12/17 05:18:32;;;;;;;5.55;2.20;;;;;;;4.75;100.00;103524.22;6305228;22;20022;-90
2021/12/17 05:21:06;;;;;;;6.70;2.05;;;;;;;4.86;100.00;103527.13;6304948;22;20023;-90
2021/12/17 05:23:39;;;;;;;4.43;1.60;;;;;;;4.86;100.00;103527.13;6304928;22;20115;-90
2021/12/17 05:26:09;;;;;;;5.05;1.98;;;;;;;4.88;100.00;103524.59;6304875;22;20029;-90
2021/12/17 05:28:36;;;;;;;5.40;2.00;;;;;;;5.04;100.00;103529.41;6303884;22;20391;-90
2021/12/17 05:31:03;;;;;;;5.85;1.95;;;;;;;4.89;100.00;103541.94;6306797;22;20019;-90
2021/12/17 05:33:30;;;;;;;5.60;1.90;;;;;;;4.83;100.00;103539.13;6304471;22;20062;-89
2021/12/17 05:35:57;;;;;;;4.88;1.90;;;;;;;4.85;100.00;103525.38;6304944;22;20066;-89
2021/12/17 05:38:26;;;;;;;6.30;1.98;;;;;;;5.04;100.00;103544.13;6302691;22;20011;-90
2021/12/17 05:40:53;;;;;;;6.07;2.10;;;;;;;4.99;100.00;103530.09;6304527;22;20030;-90
2021/12/17 05:43:20;;;;;;;6.90;2.30;;;;;;;5.10;100.00;103541.72;6303670;22;20023;-89
2021/12/17 05:46:01;;;;;;;4.40;1.40;;;;;;;4.86;100.00;103555.69;6304536;22;20019;-90
2021/12/17 05:48:28;;;;;;;6.53;2.05;;;;;;;4.89;100.00;103542.81;6305529;22;20094;-90
2021/12/17 05:50:58;;;;;;;4.85;1.85;;;;;;;4.88;100.00;103548.81;6306042;22;20467;-90
2021/12/17 05:53:25;;;;;;;4.07;1.75;;;;;;;4.71;100.00;103563.88;6305383;22;20468;-89
2021/12/17 05:55:52;;;;;;;6.30;2.08;;;;;;;4.80;100.00;103552.00;6304345;22;20768;-89
2021/12/17 05:58:27;;;;;;;5.78;2.42;;;;;;;4.67;100.00;103556.81;6303464;22;20011;-90
2021/12/17 06:00:55;;;;;;;3.72;1.70;;;;;;;4.73;100.00;103563.94;6304665;22;20023;-90
2021/12/17 06:03:23;;;;;;;8.13;2.50;;;;;;;4.68;100.00;103555.13;6303431;22;20019;-90
2021/12/17 06:05:50;;;;;;;4.80;2.03;;;;;;;4.74;100.00;103555.31;6303677;22;20098;-90
2021/12/17 06:08:17;;;;;;;3.95;1.80;;;;;;;4.73;100.00;103536.25;6303187;22;20787;-90
2021/12/17 06:10:44;;;;;;;7.20;2.00;;;;;;;4.56;100.00;103556.47;6304428;22;20022;-89
2021/12/17 06:13:11;;;;;;;5.85;2.05;;;;;;;4.57;100.00;103553.06;6303734;22;20333;-88
2021/12/17 06:15:38;;;;;;;7.20;2.28;;;;;;;4.50;100.00;103532.06;6302807;22;20019;-90
2021/12/17 06:18:05;;;;;;;5.15;2.40;;;;;;;4.61;100.00;103551.44;6303392;22;20015;-90
2021/12/17 06:20:32;;;;;;;6.22;2.05;;;;;;;4.65;100.00;103560.22;6304113;22;20132;-90
2021/12/17 06:22:58;;;;;;;6.38;2.42;;;;;;;4.65;100.00;103553.28;6304111;22;20033;-90
2021/12/17 06:25:25;;;;;;;5.25;2.25;;;;;;;4.69;100.00;103552.59;6304281;22;20395;-90
2021/12/17 06:27:55;;;;;;;7.50;2.53;;;;;;;4.70;100.00;103562.13;6302755;22;20037;-90
2021/12/17 06:30:22;;;;;;;6.10;2.10;;;;;;;4.69;100.00;103560.38;6305445;22;20022;-90
2021/12/17 06:32:49;;;;;;;6.65;2.72;;;;;;;4.82;100.00;103568.53;6304245;22;20098;-91
2021/12/17 06:35:16;;;;;;;5.90;2.47;;;;;;;4.65;100.00;103555.88;6304029;22;20023;-91
2021/12/17 06:37:43;;;;;;;4.50;1.80;;;;;;;4.69;100.00;103569.84;6302329;22;20023;-91
2021/12/17 06:40:11;;;;;;;5.93;2.25;;;;;;;4.73;100.00;103580.38;6303714;22;20023;-91
2021/12/17 06:42:39;;;;;;;7.30;2.42;;;;;;;4.76;100.00;103579.59;6302944;22;20023;-90
2021/12/17 06:45:15;;;;;;;6.50;2.58;;;;;;;4.55;100.00;103580.69;6305286;22;20057;-90
2021/12/17 06:47:45;;;;;;;5.32;2.10;;;;;;;4.67;100.00;103568.91;6302353;22;20030;-90
2021/12/17 06:58:51;;;;;;;5.72;2.30;;;;;;;4.51;100.00;103564.94;6306312;22;20656;-91
2021/12/17 07:17:08;;;;;;;6.38;2.58;;;;;;;4.43;100.00;103569.03;6307788;22;20019;-89
2021/12/17 07:17:34;;;;;;;5.20;1.90;;;;;;;4.54;100.00;103586.69;6306638;22;20015;-88
2021/12/17 07:20:53;;;;;;;6.57;2.20;;;;;;;4.43;100.00;103579.41;6305033;22;20344;-89
2021/12/17 07:34:07;;;;;;;4.70;2.00;;;;;;;4.42;100.00;103588.88;6307534;22;20023;-89
2021/12/17 07:39:18;;;;;;;6.72;1.98;;;;;;;4.42;100.00;103611.34;6308450;22;20015;-88
2021/12/17 07:41:45;;;;;;;5.68;2.20;;;;;;;4.29;100.00;103615.25;6305414;22;20034;-88
2021/12/17 07:44:13;;;;;;;5.18;2.00;;;;;;;4.40;100.00;103620.78;6305731;22;20015;-88
2021/12/17 07:46:40;;;;;;;4.90;1.92;;;;;;;4.41;100.00;103617.34;6306232;22;20023;-88
2021/12/17 07:49:06;;;;;;;5.35;2.13;;;;;;;4.26;100.00;103617.72;6306940;22;20019;-88
2021/12/17 07:51:33;;;;;;;7.35;2.33;;;;;;;4.33;100.00;103619.69;6305835;22;20021;-89
2021/12/17 07:54:00;;;;;;;5.20;1.90;;;;;;;4.36;100.00;103625.88;6308757;22;20023;-88
2021/12/17 07:56:30;;;;;;;6.10;2.10;;;;;;;4.54;100.00;103632.53;6307287;22;20019;-88
2021/12/17 07:58:57;;;;;;;6.30;2.30;;;;;;;4.32;100.00;103617.91;6304953;22;20019;-88
2021/12/17 08:01:24;;;;;;;6.72;2.33;;;;;;;4.10;100.00;103617.16;6305838;22;20072;-88
2021/12/17 08:03:51;;;;;;;6.30;2.28;;;;;;;4.07;100.00;103585.06;6307984;22;20019;-89
2021/12/17 08:06:18;;;;;;;7.80;2.35;;;;;;;4.37;100.00;103622.47;6304915;22;20023;-85
2021/12/17 08:08:45;;;;;;;7.15;2.75;;;;;;;4.38;100.00;103616.41;6306432;22;20019;-88
2021/12/17 08:11:12;;;;;;;8.27;2.85;;;;;;;4.45;100.00;103617.53;6305691;22;20025;-89
2021/12/17 08:13:40;;;;;;;9.82;3.10;;;;;;;4.36;100.00;103612.03;6307792;22;20459;-89
2021/12/17 08:32:04;;;;;;;9.07;2.85;;;;;;;4.37;100.00;103629.34;6307806;22;20026;-89
2021/12/17 08:34:30;;;;;;;11.88;3.75;;;;;;;4.51;100.00;103638.47;6305298;22;20019;-88
2021/12/17 08:36:57;;;;;;;7.90;2.83;;;;;;;4.47;100.00;103647.00;6304419;22;20019;-88
2021/12/17 08:39:26;;;;;;;7.32;2.92;;;;;;;4.57;100.00;103645.59;6305738;22;20022;-88
2021/12/17 08:41:55;;;;;;;8.80;2.70;;;;;;;4.55;100.00;103647.25;6306752;22;20311;-87
2021/12/17 08:44:23;;;;;;;10.48;3.38;;;;;;;4.45;100.00;103646.06;6302937;22;20090;-86
2021/12/17 08:46:49;;;;;;;7.72;3.88;;;;;;;4.38;100.00;103637.19;6305080;22;20058;-88
2021/12/17 08:49:16;;;;;;;9.27;3.28;;;;;;;4.49;100.00;103637.53;6302889;22;20019;-88
2021/12/17 08:51:44;;;;;;;7.30;2.92;;;;;;;4.45;100.00;103650.38;6304893;22;20019;-88
2021/12/17 08:54:11;;;;;;;7.35;3.13;;;;;;;4.39;100.00;103658.81;6306551;22;20019;-88
2021/12/17 08:56:47;;;;;;;8.02;2.58;;;;;;;4.34;100.00;103650.88;6304580;22;20019;-88
2021/12/17 08:59:16;;;;;;;5.60;2.50;;;;;;;4.45;100.00;103652.97;6305779;22;20015;-88
2021/12/17 09:01:46;;;;;;;6.78;2.95;;;;;;;4.45;100.00;103668.53;6305870;22;20023;-88
2021/12/17 09:04:14;;;;;;;7.38;3.10;;;;;;;4.21;100.00;103642.59;6302778;22;20015;-88
2021/12/17 09:06:41;;;;;;;5.53;2.47;;;;;;;4.36;100.00;103663.91;6304409;22;20384;-88
2021/12/17 09:09:08;;;;;;;8.73;2.97;;;;;;;4.40;100.00;103672.69;6306669;22;20442;-88
2021/12/17 09:11:38;;;;;;;6.30;2.65;;;;;;;4.43;100.00;103652.91;6306712;22;20447;-89
2021/12/17 09:14:05;;;;;;;7.10;2.45;;;;;;;4.46;100.00;103672.88;6306534;22;20019;-88
2021/12/17 09:16:34;;;;;;;8.27;2.58;;;;;;;4.36;100.00;103661.31;6306810;22;20025;-88
2021/12/17 09:19:03;;;;;;;5.28;2.25;;;;;;;4.33;100.00;103661.19;6305282;22;20016;-88
2021/12/17 09:21:31;;;;;;;8.00;3.08;;;;;;;4.22;100.00;103654.75;6305409;22;20030;-88
2021/12/17 09:23:57;;;;;;;6.35;2.35;;;;;;;4.05;100.00;103616.13;6304744;22;20019;-88
2021/12/17 09:26:25;;;;;;;6.97;2.40;;;;;;;4.45;100.00;103676.31;6304882;22;20027;-88
2021/12/17 09:28:51;;;;;;;7.05;2.85;;;;;;;4.25;100.00;103652.25;6304101;22;20015;-88
2021/12/17 09:31:19;;;;;;;6.13;2.50;;;;;;;4.54;100.00;103676.63;6307665;22;20030;-89
2021/12/17 09:33:51;;;;;;;8.50;2.85;;;;;;;4.65;100.00;103689.97;6304751;22;20445;-90
2021/12/17 09:36:19;;;;;;;7.25;2.75;;;;;;;4.68;100.00;103680.59;6305539;22;20094;-89
2021/12/17 09:38:52;;;;;;;8.10;2.95;;;;;;;4.75;100.00;103687.75;6303935;22;20015;-89
2021/12/17 09:41:22;;;;;;;5.60;2.17;;;;;;;4.69;100.00;103678.84;6304090;22;20027;-87
2021/12/17 09:43:49;;;;;;;6.35;2.35;;;;;;;4.84;100.00;103687.16;6305681;22;20041;-87
2021/12/17 09:46:17;;;;;;;10.00;2.92;;;;;;;4.73;100.00;103686.81;6305481;22;20019;-88
2021/12/17 09:48:48;;;;;;;8.55;2.78;;;;;;;5.03;100.00;103699.06;6303680;22;20307;-88
2021/12/17 09:51:18;;;;;;;6.03;2.03;;;;;;;5.08;100.00;103686.22;6305682;22;20015;-88
2021/12/17 09:53:47;;;;;;;8.75;2.72;;;;;;;4.97;100.00;103685.00;6304805;22;20019;-88
2021/12/17 09:56:13;;;;;;;7.57;2.30;;;;;;;5.23;100.00;103698.81;6304821;22;20337;-88
2021/12/17 09:58:40;;;;;;;9.05;2.08;;;;;;;5.28;100.00;103674.75;6305440;22;20029;-88
2021/12/17 10:01:07;;;;;;;7.85;2.20;;;;;;;5.45;100.00;103687.38;6306425;22;20021;-88
2021/12/17 10:03:34;;;;;;;6.43;2.88;;;;;;;5.45;100.00;103688.28;6304430;22;20362;-88
2021/12/17 10:06:01;;;;;;;5.18;2.00;;;;;;;5.55;100.00;103694.63;6305176;22;20555;-88
2021/12/17 10:08:28;;;;;;;7.78;2.90;;;;;;;5.62;100.00;103706.97;6303849;22;20106;-88
2021/12/17 10:11:04;;;;;;;5.35;2.30;;;;;;;5.78;100.00;103695.31;6306398;22;20015;-88
2021/12/17 10:13:33;;;;;;;6.95;2.22;;;;;;;5.80;100.00;103703.16;6304861;22;20033;-88
2021/12/17 10:16:07;;;;;;;5.30;2.03;;;;;;;5.78;100.00;103687.53;6305093;22;20064;-88
2021/12/17 10:18:36;;;;;;;7.70;1.80;;;;;;;5.81;100.00;103694.56;6302909;22;20073;-88
2021/12/17 10:21:11;;;;;;;5.70;2.00;;;;;;;6.02;100.00;103690.00;6305068;22;20683;-88
2021/12/17 10:23:41;;;;;;;6.38;1.90;;;;;;;6.08;100.00;103702.28;6305210;22;20463;-88
2021/12/17 10:26:13;;;;;;;4.15;1.77;;;;;;;6.28;100.00;103708.06;6304595;22;20030;-86
2021/12/17 10:29:01;;;;;;;4.18;1.80;;;;;;;6.13;100.00;103666.03;6303589;22;20030;-88
2021/12/17 10:31:30;;;;;;;5.18;1.90;;;;;;;6.13;100.00;103699.84;6306888;22;20023;-88
2021/12/17 10:34:00;;;;;;;8.35;2.65;;;;;;;6.05;100.00;103690.06;6305560;22;20019;-89
2021/12/17 10:36:42;;;;;;;6.65;2.65;;;;;;;5.85;100.00;103709.41;6305038;22;20023;-89
2021/12/17 10:39:28;;;;;;;6.38;2.25;;;;;;;5.70;100.00;103708.09;6304626;22;20098;-86
2021/12/17 10:41:55;;;;;;;7.05;2.53;;;;;;;5.76;100.00;103716.94;6303926;22;20026;-90
2021/12/17 10:44:23;;;;;;;6.90;2.50;;;;;;;5.66;100.00;103716.63;6304530;22;20019;-90
2021/12/17 10:47:32;;;;;;;6.85;2.63;;;;;;;5.57;100.00;103702.47;6304044;22;20102;-90
2021/12/17 10:49:53;;;;;;;5.93;2.10;;;;;;;5.79;100.00;103709.19;6305678;22;20503;-90
2021/12/17 10:52:29;;;;;;;7.03;2.42;;;;;;;5.62;100.00;103699.19;6304702;22;20019;-90
2021/12/17 10:55:16;;;;;;;7.32;2.70;;;;;;;5.66;100.00;103723.56;6305288;22;20019;-90
2021/12/17 10:57:43;;;;;;;6.53;2.40;;;;;;;5.73;100.00;103717.69;6302525;22;20453;-88
2021/12/17 11:00:11;;;;;;;10.18;2.92;;;;;;;5.51;100.00;103691.06;6306630;22;20015;-90
2021/12/17 11:02:50;;;;;;;5.00;1.92;;;;;;;5.84;100.00;103703.31;6305017;22;20019;-90
2021/12/17 11:05:18;;;;;;;5.38;2.25;;;;;;;5.86;100.00;103703.34;6304568;22;20023;-90
2021/12/17 11:07:50;;;;;;;8.27;2.55;;;;;;;5.84;100.00;103703.31;6304250;22;20445;-88
2021/12/17 11:10:26;;;;;;;7.97;2.85;;;;;;;5.98;100.00;103706.34;6305502;22;20019;-89
2021/12/17 11:12:53;;;;;;;6.25;2.63;;;;;;;6.00;100.00;103704.69;6306523;22;20341;-90
2021/12/17 11:15:20;;;;;;;5.25;2.03;;;;;;;6.09;100.00;103711.84;6304599;22;20029;-89
2021/12/17 11:17:50;;;;;;;6.15;2.38;;;;;;;5.94;100.00;103691.47;6303332;22;20023;-88
2021/12/17 11:20:29;;;;;;;5.32;2.17;;;;;;;6.05;100.00;103684.00;6306199;22;20027;-90
2021/12/17 11:23:03;;;;;;;6.50;2.30;;;;;;;6.22;100.00;103711.38;6304671;22;20016;-87
2021/12/17 11:25:30;;;;;;;8.48;2.53;;;;;;;6.24;100.00;103709.69;6305661;22;20397;-88
2021/12/17 11:27:57;;;;;;;5.10;1.95;;;;;;;6.29;100.00;103711.56;6302755;22;20019;-90
2021/12/17 11:30:28;;;;;;;5.85;2.35;;;;;;;6.22;100.00;103692.28;6304695;22;20050;-90
2021/12/17 11:32:56;;;;;;;8.10;3.03;;;;;;;6.38;100.00;103723.09;6305125;22;20023;-90
2021/12/17 11:35:26;;;;;;;9.15;3.38;;;;;;;6.44;100.00;103712.84;6305465;22;20019;-90
2021/12/17 11:37:56;;;;;;;8.57;3.63;;;;;;;6.34;100.00;103717.75;6304280;22;20015;-90
2021/12/17 11:40:31;;;;;;;7.63;3.15;;;;;;;5.93;100.00;103660.19;6307336;22;20011;-89
2021/12/17 11:43:35;;;;;;;7.75;2.58;;;;;;;6.49;100.00;103723.38;6308681;22;20430;-90
2021/12/17 11:46:13;;;;;;;9.85;2.63;;;;;;;6.45;100.00;103691.19;6306196;22;20094;-90
2021/12/17 11:48:50;;;;;;;9.07;3.13;;;;;;;6.54;100.00;103711.38;6304954;22;20023;-90
2021/12/17 11:51:23;;;;;;;6.65;2.50;;;;;;;6.59;100.00;103714.13;6306205;22;20089;-90
2021/12/17 11:53:59;;;;;;;7.95;2.40;;;;;;;6.75;100.00;103710.19;6306452;22;20030;-90
2021/12/17 11:56:43;;;;;;;8.35;3.05;;;;;;;6.78;100.00;103715.47;6306473;22;20023;-89
2021/12/17 11:59:30;;;;;;;6.88;3.22;;;;;;;6.86;100.00;103707.84;6307793;22;20094;-90
2021/12/17 12:02:22;;;;;;;8.43;3.28;;;;;;;6.94;100.00;103711.53;6305705;22;20059;-91
2021/12/17 12:05:03;;;;;;;10.43;4.50;;;;;;;6.82;100.00;103679.13;6305802;22;20011;-91
2021/12/17 12:07:33;;;;;;;13.30;6.53;;;;;;;6.96;100.00;103691.63;6305298;22;20023;-90
2021/12/17 12:10:12;;;;;;;23.27;12.68;;;;;;;6.84;100.00;103708.69;6306047;22;20430;-90
2021/12/17 12:12:45;;;;;;;22.42;11.55;;;;;;;6.99;100.00;103707.31;6306399;22;20027;-90
2021/12/17 12:15:27;;;;;;;16.35;9.55;;;;;;;7.16;100.00;103707.72;6305869;22;20019;-90
2021/12/17 12:18:17;;;;;;;17.80;8.90;;;;;;;7.26;100.00;103704.50;6304953;22;20461;-89
2021/12/17 12:20:48;;;;;;;18.67;7.97;;;;;;;7.46;100.00;103707.56;6327287;22;20050;-89
2021/12/17 12:23:36;;;;;;;17.30;6.97;;;;;;;7.35;100.00;103703.84;6326713;22;20049;-88
2021/12/17 12:26:20;;;;;;;14.70;7.32;;;;;;;7.16;100.00;103663.44;6326972;22;20101;-89
2021/12/17 12:29:04;;;;;;;;;;;;;;;7.64;100.00;103693.19;6328909;22;20034;-89
2021/12/17 12:31:48;;;;;;;13.52;7.03;;;;;;;7.20;100.00;103676.56;6326156;22;20312;-89
2021/12/17 12:34:36;;;;;;;14.27;6.30;;;;;;;7.50;100.00;103696.34;6328358;22;20030;-87
2021/12/17 12:37:22;;;;;;;14.63;6.72;;;;;;;7.14;100.00;103646.91;6327253;22;20020;-90
2021/12/17 12:40:14;;;;;;;17.15;8.30;;;;;;;7.38;100.00;103701.28;6325875;22;20019;-89
2021/12/17 12:42:56;;;;;;;21.90;10.52;;;;;;;7.39;100.00;103703.06;6285304;22;20027;-88
2021/12/17 12:45:39;;;;;;;22.42;10.27;;;;;;;7.36;100.00;103675.19;6325070;22;20022;-87
2021/12/17 12:48:08;;;;;;;19.30;9.65;;;;;;;7.28;100.00;103655.00;6324457;22;20019;-86
2021/12/17 12:50:49;;;;;;;34.95;12.52;;;;;;;7.45;100.00;103705.81;6326096;22;20019;-88
2021/12/17 12:53:30;;;;;;;16.60;8.75;;;;;;;7.29;100.00;103694.13;6323574;22;20030;-88
2021/12/17 12:56:16;;;;;;;14.48;7.88;;;;;;;7.19;100.00;103676.56;6323276;22;20034;-89
2021/12/17 12:58:57;;;;;;;14.35;7.63;;;;;;;7.40;100.00;103697.00;6327095;22;20026;-87
2021/12/17 13:01:38;;;;;;;14.30;7.18;;;;;;;7.04;100.00;103632.75;6326689;22;20027;-86
2021/12/17 13:04:07;;;;;;;13.93;6.75;;;;;;;7.10;100.00;103627.69;6323707;22;20019;-88
2021/12/17 13:06:48;;;;;;;20.23;7.88;;;;;;;7.31;100.00;103669.00;6317472;22;20023;-86
2021/12/17 13:09:27;;;;;;;17.63;8.32;;;;;;;7.47;100.00;103695.41;6322837;22;20030;-88
2021/12/17 13:12:09;;;;;;;16.25;8.77;;;;;;;7.18;100.00;103667.81;6325809;22;20023;-85
2021/12/17 13:14:50;;;;;;;13.93;6.70;;;;;;;6.97;100.00;103639.53;6321793;22;20034;-88
2021/12/17 13:20:14;;;;;;;12.38;6.32;;;;;;;6.82;100.00;103616.63;6320720;22;20051;-88
2021/12/17 13:22:56;;;;;;;10.40;3.97;;;;;;;6.96;100.00;103670.78;6323449;22;20015;-88
2021/12/17 13:25:37;;;;;;;10.82;3.40;;;;;;;7.34;100.00;103681.22;6319761;22;20488;-86
2021/12/17 13:28:04;;;;;;;8.05;3.58;;;;;;;7.43;100.00;103676.22;6321662;22;20030;-88
2021/12/17 13:30:45;;;;;;;9.68;3.75;;;;;;;7.27;100.00;103633.28;6324169;22;20019;-88
2021/12/17 13:33:37;;;;;;;8.85;3.30;;;;;;;7.38;100.00;103646.56;6325187;22;20019;-88
2021/12/17 13:36:18;;;;;;;11.25;3.67;;;;;;;7.23;100.00;103621.91;6322236;22;20077;-87
2021/12/17 13:38:56;;;;;;;10.50;3.40;;;;;;;7.32;100.00;103636.88;6323954;22;20029;-86
2021/12/17 13:41:42;;;;;;;9.27;3.40;;;;;;;7.52;100.00;103667.72;6325025;22;20045;-87
2021/12/17 13:44:32;;;;;;;9.85;3.28;;;;;;;7.13;100.00;103600.81;6327129;22;20023;-89
2021/12/17 13:47:20;;;;;;;8.75;2.97;;;;;;;7.40;100.00;103652.66;6326432;22;20030;-89
2021/12/17 13:50:13;;;;;;;8.38;2.78;;;;;;;7.50;100.00;103674.63;6325194;22;20019;-87
2021/12/17 13:52:55;;;;;;;8.77;3.30;;;;;;;7.21;100.00;103646.19;6327234;22;20045;-88
2021/12/17 13:55:41;;;;;;;12.80;4.30;;;;;;;6.81;100.00;103620.06;6325785;22;20030;-88
2021/12/17 13:58:24;;;;;;;11.43;3.67;;;;;;;6.95;100.00;103633.41;6324345;22;20034;-88
2021/12/17 14:01:05;;;;;;;7.85;2.92;;;;;;;7.16;100.00;103666.91;6328368;22;20022;-88
2021/12/17 14:03:46;;;;;;;10.55;3.50;;;;;;;6.85;100.00;103636.63;6324902;22;20030;-88
2021/12/17 14:06:35;;;;;;;10.25;3.85;;;;;;;6.66;100.00;103593.66;6326237;22;20019;-88
2021/12/17 14:09:16;;;;;;;15.27;4.50;;;;;;;7.01;100.00;103656.13;6323158;22;20047;-87
2021/12/17 14:12:12;;;;;;;12.93;5.20;;;;;;;7.06;100.00;103659.72;6322667;22;20026;-87
2021/12/17 14:14:58;;;;;;;17.10;7.68;;;;;;;7.02;100.00;103663.09;6282042;22;20144;-88
2021/12/17 14:17:32;;;;;;;25.40;12.05;;;;;;;6.95;100.00;103671.63;6303538;22;20025;-88
2021/12/17 14:20:19;;;;;;;26.23;12.60;;;;;;;6.77;100.00;103651.22;6303836;22;20015;-89
2021/12/17 14:22:53;;;;;;;18.67;9.38;;;;;;;6.77;100.00;103669.44;6304324;22;20337;-88
2021/12/17 14:25:41;;;;;;;20.80;8.90;;;;;;;6.85;100.00;103662.69;6304294;22;20026;-88
2021/12/17 14:28:13;;;;;;;14.57;7.05;;;;;;;6.70;100.00;103671.00;6303426;22;20019;-88
2021/12/17 14:30:43;;;;;;;16.70;7.68;;;;;;;6.50;100.00;103664.38;6303973;22;20329;-88
2021/12/17 14:33:17;;;;;;;18.83;7.43;;;;;;;6.62;100.00;103665.59;6306039;22;20336;-88
2021/12/17 14:36:01;;;;;;;12.10;5.63;;;;;;;6.47;100.00;103637.44;6304308;22;20046;-88
2021/12/17 14:38:50;;;;;;;12.48;5.85;;;;;;;6.62;100.00;103663.00;6304659;22;20469;-90
2021/12/17 14:41:22;;;;;;;11.88;5.18;;;;;;;6.62;100.00;103665.59;6305045;22;20015;-90